createdAt,value
2023-04-02T00:02:23.753Z,6.38
2023-04-02T00:05:19.730Z,5.18
2023-04-02T00:07:58.104Z,5.07
2023-04-02T00:10:33.634Z,5.40
2023-04-02T00:13:01.602Z,6.95
2023-04-02T00:15:29.275Z,6.40
2023-04-02T00:17:57.753Z,6.43
2023-04-02T00:20:26.562Z,7.80
2023-04-02T00:22:56.236Z,7.10
2023-04-02T00:25:26.607Z,6.72
2023-04-02T00:27:54.237Z,6.85
2023-04-02T00:30:21.115Z,7.00
2023-04-02T00:32:48.283Z,7.15
2023-04-02T00:35:24.833Z,6.47
2023-04-02T00:37:51.886Z,6.60
2023-04-02T00:40:31.070Z,6.70
2023-04-02T00:43:04.368Z,6.95
2023-04-02T00:45:35.743Z,6.28
2023-04-02T00:48:28.073Z,8.20
2023-04-02T00:50:56.669Z,6.30
2023-04-02T00:53:29.660Z,6.65
2023-04-02T00:55:58.530Z,6.63
2023-04-02T00:58:36.770Z,6.70
2023-04-02T01:01:04.732Z,6.13
2023-04-02T01:03:36.622Z,7.05
2023-04-02T01:06:11.480Z,7.07
2023-04-02T01:09:02.261Z,5.53
2023-04-02T01:11:47.535Z,5.97
2023-04-02T01:14:39.405Z,5.60
2023-04-02T01:17:43.166Z,6.40
2023-04-02T01:20:29.161Z,5.22
2023-04-02T01:23:06.414Z,5.82
2023-04-02T01:26:09.475Z,5.75
2023-04-02T01:29:26.211Z,4.78
2023-04-02T01:31:55.635Z,4.95
2023-04-02T01:34:27.270Z,4.97
2023-04-02T01:37:08.170Z,5.47
2023-04-02T01:39:35.102Z,5.10
2023-04-02T01:42:36.859Z,4.70
2023-04-02T01:45:15.294Z,5.18
2023-04-02T01:47:44.010Z,5.50
2023-04-02T01:50:20.002Z,4.82
2023-04-02T01:52:50.414Z,5.18
2023-04-02T01:56:07.489Z,4.47
2023-04-02T01:58:34.443Z,5.10
2023-04-02T02:01:14.094Z,4.50
2023-04-02T02:03:43.454Z,4.82
2023-04-02T02:06:16.008Z,5.45
2023-04-02T02:08:59.331Z,5.13
2023-04-02T02:11:31.093Z,4.68
2023-04-02T02:13:59.771Z,4.93
2023-04-02T02:16:29.031Z,4.22
2023-04-02T02:19:00.640Z,4.68
2023-04-02T02:21:44.207Z,4.60
2023-04-02T02:24:22.215Z,4.60
2023-04-02T02:27:10.846Z,4.80
2023-04-02T02:29:41.079Z,4.20
2023-04-02T02:32:11.044Z,4.35
2023-04-02T02:34:46.408Z,4.20
2023-04-02T02:37:22.547Z,4.25
2023-04-02T02:39:53.428Z,3.88
2023-04-02T02:42:34.695Z,4.07
2023-04-02T02:45:05.116Z,3.88
2023-04-02T02:47:34.736Z,3.80
2023-04-02T02:50:06.306Z,3.30
2023-04-02T02:52:36.358Z,3.65
2023-04-02T02:55:19.632Z,3.28
2023-04-02T02:57:56.006Z,3.25
2023-04-02T03:00:24.692Z,3.30
2023-04-02T03:02:54.933Z,3.97
2023-04-02T03:05:26.289Z,3.55
2023-04-02T03:08:04.683Z,3.85
2023-04-02T03:10:44.234Z,3.25
2023-04-02T03:13:35.563Z,3.28
2023-04-02T03:16:33.165Z,3.30
2023-04-02T03:19:26.805Z,3.25
2023-04-02T03:22:21.818Z,2.85
2023-04-02T03:25:26.990Z,2.28
2023-04-02T03:28:01.774Z,2.60
2023-04-02T03:30:38.716Z,2.85
2023-04-02T03:33:22.084Z,2.80
2023-04-02T03:36:07.967Z,3.10
2023-04-02T03:38:47.206Z,3.33
2023-04-02T03:41:37.762Z,3.05
2023-04-02T03:44:15.410Z,2.83
2023-04-02T03:46:46.454Z,2.50
2023-04-02T03:49:47.680Z,3.28
2023-04-02T03:52:20.473Z,2.85
2023-04-02T03:54:54.046Z,3.33
2023-04-02T03:57:40.424Z,2.20
2023-04-02T04:00:16.489Z,2.42
2023-04-02T04:02:49.289Z,2.88
2023-04-02T04:05:46.125Z,2.38
2023-04-02T04:08:27.097Z,2.47
2023-04-02T04:11:01.384Z,2.63
2023-04-02T04:13:46.864Z,2.22
2023-04-02T04:16:22.570Z,2.55
2023-04-02T04:19:15.137Z,2.53
2023-04-02T04:21:44.982Z,2.05
2023-04-02T04:24:24.046Z,2.38
2023-04-02T04:27:09.515Z,2.78
2023-04-02T04:29:54.228Z,2.42
2023-04-02T04:32:32.440Z,2.80
2023-04-02T04:35:28.303Z,2.15
2023-04-02T04:38:33.054Z,2.58
2023-04-02T04:41:22.699Z,2.78
2023-04-02T04:44:22.987Z,2.55
2023-04-02T04:46:55.933Z,2.10
2023-04-02T04:49:31.084Z,2.83
2023-04-02T04:52:20.331Z,2.10
2023-04-02T04:54:48.002Z,2.10
2023-04-02T04:57:36.977Z,2.17
2023-04-02T05:00:12.657Z,2.28
2023-04-02T05:03:03.469Z,2.40
2023-04-02T05:05:36.798Z,2.17
2023-04-02T05:08:22.321Z,2.47
2023-04-02T05:13:58.025Z,2.47
2023-04-02T05:16:48.883Z,2.50
2023-04-02T05:19:25.711Z,2.22
2023-04-02T05:22:09.013Z,3.20
2023-04-02T05:24:51.696Z,2.50
2023-04-02T05:27:47.135Z,1.92
2023-04-02T05:30:46.873Z,2.10
2023-04-02T05:33:30.362Z,1.92
2023-04-02T05:36:12.580Z,2.47
2023-04-02T05:38:45.385Z,2.22
2023-04-02T05:41:29.092Z,2.05
2023-04-02T05:44:08.693Z,2.47
2023-04-02T05:46:41.602Z,2.17
2023-04-02T05:49:19.439Z,2.40
2023-04-02T05:51:51.427Z,1.98
2023-04-02T05:54:46.470Z,2.30
2023-04-02T05:57:24.903Z,2.28
2023-04-02T06:00:00.512Z,2.75
2023-04-02T06:02:33.642Z,2.38
2023-04-02T06:05:06.128Z,1.98
2023-04-02T06:07:45.199Z,2.13
2023-04-02T06:10:18.231Z,2.05
2023-04-02T06:12:51.620Z,1.77
2023-04-02T06:15:23.797Z,2.30
2023-04-02T06:17:58.858Z,2.28
2023-04-02T06:20:26.839Z,2.08
2023-04-02T06:23:02.438Z,2.00
2023-04-02T06:25:39.703Z,2.13
2023-04-02T06:28:11.525Z,2.00
2023-04-02T06:30:41.288Z,2.60
2023-04-02T06:33:13.412Z,2.35
2023-04-02T06:35:42.468Z,2.30
2023-04-02T06:38:18.817Z,2.13
2023-04-02T06:40:49.010Z,1.80
2023-04-02T06:43:36.180Z,2.05
2023-04-02T06:46:21.926Z,2.35
2023-04-02T06:48:57.425Z,1.92
2023-04-02T06:51:26.219Z,2.25
2023-04-02T06:53:53.379Z,2.10
2023-04-02T06:56:51.360Z,1.83
2023-04-02T06:59:19.095Z,2.30
2023-04-02T07:01:57.392Z,1.70
2023-04-02T07:04:26.643Z,1.55
2023-04-02T07:06:53.738Z,2.80
2023-04-02T07:09:20.848Z,2.40
2023-04-02T07:11:47.646Z,1.98
2023-04-02T07:14:14.538Z,2.13
2023-04-02T07:16:42.874Z,2.10
2023-04-02T07:19:21.242Z,2.10
2023-04-02T07:21:48.360Z,2.20
2023-04-02T07:24:15.508Z,2.15
2023-04-02T07:26:42.376Z,1.83
2023-04-02T07:29:14.311Z,2.55
2023-04-02T07:31:41.460Z,1.88
2023-04-02T07:34:09.065Z,1.75
2023-04-02T07:36:35.953Z,2.00
2023-04-02T07:39:03.409Z,1.98
2023-04-02T07:41:30.260Z,1.60
2023-04-02T07:43:57.043Z,1.70
2023-04-02T07:46:24.572Z,2.00
2023-04-02T07:48:51.377Z,1.80
2023-04-02T07:51:24.120Z,1.85
2023-04-02T07:53:56.075Z,1.65
2023-04-02T07:56:25.306Z,1.75
2023-04-02T07:58:52.392Z,1.85
2023-04-02T08:01:24.014Z,1.77
2023-04-02T08:03:54.146Z,2.08
2023-04-02T08:06:25.009Z,1.90
2023-04-02T08:08:51.880Z,1.88
2023-04-02T08:11:18.665Z,2.08
2023-04-02T08:13:45.546Z,1.98
2023-04-02T08:16:12.500Z,1.83
2023-04-02T08:18:39.441Z,1.90
2023-04-02T08:21:10.793Z,1.88
2023-04-02T08:23:37.972Z,2.10
2023-04-02T08:26:05.764Z,2.10
2023-04-02T08:28:32.810Z,1.88
2023-04-02T08:30:59.658Z,2.10
2023-04-02T08:33:27.075Z,2.00
2023-04-02T08:35:54.107Z,1.90
2023-04-02T08:38:22.094Z,2.00
2023-04-02T08:40:56.579Z,1.80
2023-04-02T08:43:48.834Z,1.95
2023-04-02T08:46:18.425Z,2.10
2023-04-02T08:48:52.922Z,2.53
2023-04-02T08:51:24.416Z,2.00
2023-04-02T08:53:53.982Z,1.85
2023-04-02T08:56:40.885Z,1.70
2023-04-02T08:59:35.698Z,2.00
2023-04-02T09:02:22.961Z,1.60
2023-04-02T09:04:51.135Z,2.05
2023-04-02T09:07:18.484Z,1.80
2023-04-02T09:09:48.858Z,2.30
2023-04-02T09:12:26.178Z,1.80
2023-04-02T09:14:58.953Z,1.95
2023-04-02T09:17:27.153Z,1.95
2023-04-02T09:19:58.598Z,1.95
2023-04-02T09:22:33.332Z,1.88
2023-04-02T09:25:02.770Z,2.00
2023-04-02T09:27:32.980Z,1.80
2023-04-02T09:30:32.877Z,2.30
2023-04-02T09:33:04.228Z,1.50
2023-04-02T09:35:49.484Z,1.95
2023-04-02T09:38:22.501Z,1.90
2023-04-02T09:40:55.651Z,1.92
2023-04-02T09:43:42.710Z,2.20
2023-04-02T09:46:25.857Z,1.80
2023-04-02T09:48:54.484Z,1.50
2023-04-02T09:51:24.141Z,1.73
2023-04-02T09:54:15.062Z,2.05
2023-04-02T09:57:00.912Z,2.42
2023-04-02T09:59:27.848Z,1.70
2023-04-02T10:01:54.697Z,1.83
2023-04-02T10:04:44.465Z,1.73
2023-04-02T10:07:38.005Z,1.73
2023-04-02T10:10:18.668Z,1.45
2023-04-02T10:12:57.083Z,1.65
2023-04-02T10:15:34.169Z,1.58
2023-04-02T10:18:16.747Z,2.15
2023-04-02T10:20:51.378Z,1.77
2023-04-02T10:23:19.466Z,1.60
2023-04-02T10:26:23.829Z,1.50
2023-04-02T10:29:12.643Z,1.52
2023-04-02T10:32:04.126Z,1.45
2023-04-02T10:34:49.013Z,1.67
2023-04-02T10:37:16.112Z,1.77
2023-04-02T10:40:00.481Z,1.67
2023-04-02T10:42:54.152Z,1.40
2023-04-02T10:45:35.310Z,1.95
2023-04-02T10:48:40.292Z,1.67
2023-04-02T10:51:26.090Z,1.65
2023-04-02T10:53:58.551Z,1.60
2023-04-02T10:56:27.665Z,1.67
2023-04-02T10:59:18.341Z,1.60
2023-04-02T11:01:47.451Z,1.65
2023-04-02T11:04:19.327Z,1.50
2023-04-02T11:07:13.845Z,1.80
2023-04-02T11:09:45.686Z,1.60
2023-04-02T11:12:41.935Z,1.75
2023-04-02T11:15:18.263Z,1.80
2023-04-02T11:17:46.408Z,1.70
2023-04-02T11:20:48.857Z,1.70
2023-04-02T11:23:19.678Z,1.60
2023-04-02T11:25:47.709Z,1.50
2023-04-02T11:28:20.210Z,1.40
2023-04-02T11:30:49.679Z,1.90
2023-04-02T11:33:38.156Z,1.40
2023-04-02T11:36:44.036Z,1.90
2023-04-02T11:39:17.344Z,1.42
2023-04-02T11:42:06.226Z,2.33
2023-04-02T11:44:33.159Z,1.70
2023-04-02T11:47:21.461Z,1.52
2023-04-02T11:50:04.399Z,1.73
2023-04-02T11:52:53.486Z,1.60
2023-04-02T11:55:36.393Z,1.60
2023-04-02T11:58:41.008Z,1.75
2023-04-02T12:01:33.910Z,1.80
2023-04-02T12:04:41.632Z,1.50
2023-04-02T12:07:28.050Z,1.60
2023-04-02T12:09:57.985Z,1.90
2023-04-02T12:12:24.686Z,1.67
2023-04-02T12:14:56.389Z,1.67
2023-04-02T12:17:30.423Z,1.95
2023-04-02T12:20:09.842Z,1.30
2023-04-02T12:22:45.813Z,1.60
2023-04-02T12:25:23.737Z,1.60
2023-04-02T12:28:07.716Z,1.80
2023-04-02T12:30:34.756Z,1.58
2023-04-02T12:33:21.956Z,1.98
2023-04-02T12:35:51.218Z,1.40
2023-04-02T12:38:24.257Z,1.60
2023-04-02T12:40:57.345Z,1.67
2023-04-02T12:43:29.786Z,1.52
2023-04-02T12:45:59.847Z,1.63
2023-04-02T12:48:27.807Z,1.60
2023-04-02T12:50:56.271Z,1.30
2023-04-02T12:53:28.469Z,1.67
2023-04-02T12:55:55.621Z,1.42
2023-04-02T12:58:32.931Z,1.30
2023-04-02T13:01:18.630Z,1.95
2023-04-02T13:04:07.268Z,1.70
2023-04-02T13:06:35.626Z,1.42
2023-04-02T13:09:07.868Z,1.60
2023-04-02T13:11:36.057Z,1.70
2023-04-02T13:14:05.811Z,1.60
2023-04-02T13:16:39.133Z,1.52
2023-04-02T13:19:11.129Z,1.80
2023-04-02T13:21:38.680Z,1.50
2023-04-02T13:24:16.074Z,1.10
2023-04-02T13:26:43.473Z,1.45
2023-04-02T13:29:28.409Z,1.25
2023-04-02T13:32:07.958Z,1.67
2023-04-02T13:34:36.619Z,1.73
2023-04-02T13:37:03.614Z,1.60
2023-04-02T13:39:30.612Z,1.40
2023-04-02T13:42:03.250Z,1.33
2023-04-02T13:44:32.150Z,1.67
2023-04-02T13:46:59.720Z,1.77
2023-04-02T13:49:27.656Z,1.25
2023-04-02T13:52:05.680Z,1.50
2023-04-02T13:54:49.413Z,1.50
2023-04-02T13:57:16.793Z,1.73
2023-04-02T13:59:43.677Z,1.50
2023-04-02T14:02:16.179Z,1.55
2023-04-02T14:04:50.526Z,1.90
2023-04-02T14:07:21.954Z,2.00
2023-04-02T14:09:54.109Z,3.40
2023-04-02T14:12:26.939Z,2.63
2023-04-02T14:15:19.234Z,2.40
2023-04-02T14:18:08.036Z,1.65
2023-04-02T14:21:06.889Z,2.17
2023-04-02T14:23:33.791Z,1.60
2023-04-02T14:26:22.274Z,1.25
2023-04-02T14:29:09.606Z,1.00
2023-04-02T14:31:47.114Z,1.25
2023-04-02T14:34:32.215Z,1.20
2023-04-02T14:37:23.238Z,1.80
2023-04-02T14:40:08.876Z,1.08
2023-04-02T14:43:21.750Z,1.42
2023-04-02T14:46:00.127Z,1.65
2023-04-02T14:48:46.288Z,1.20
2023-04-02T14:51:22.337Z,1.20
2023-04-02T14:54:06.392Z,1.17
2023-04-02T14:56:59.463Z,1.35
2023-04-02T14:59:43.706Z,1.10
2023-04-02T15:02:30.906Z,1.50
2023-04-02T15:05:05.809Z,1.40
2023-04-02T15:08:28.328Z,0.82
2023-04-02T15:11:23.740Z,1.05
2023-04-02T15:14:01.443Z,1.05
2023-04-02T15:16:28.627Z,1.17
2023-04-02T15:19:03.976Z,1.00
2023-04-02T15:21:49.874Z,1.33
2023-04-02T15:24:35.718Z,1.10
2023-04-02T15:27:23.980Z,1.30
2023-04-02T15:30:15.956Z,1.17
2023-04-02T15:32:44.009Z,0.90
2023-04-02T15:35:20.850Z,1.00
2023-04-02T15:38:05.930Z,0.98
2023-04-02T15:40:54.784Z,1.20
2023-04-02T15:43:43.188Z,0.90
2023-04-02T15:46:21.418Z,0.82
2023-04-02T15:49:07.545Z,0.98
2023-04-02T15:51:58.334Z,1.00
2023-04-02T15:54:28.080Z,1.10
2023-04-02T15:57:07.629Z,1.20
2023-04-02T16:00:02.658Z,1.05
2023-04-02T16:02:39.855Z,0.90
2023-04-02T16:05:31.429Z,0.90
2023-04-02T16:08:27.338Z,0.90
2023-04-02T16:13:23.921Z,1.20
2023-04-02T16:16:09.789Z,1.38
2023-04-02T16:19:16.038Z,1.00
2023-04-02T16:21:54.715Z,1.23
2023-04-02T16:24:22.646Z,1.10
2023-04-02T16:27:11.753Z,1.40
2023-04-02T16:29:54.887Z,1.05
2023-04-02T16:32:28.626Z,1.33
2023-04-02T16:35:41.707Z,1.20
2023-04-02T16:38:42.184Z,1.02
2023-04-02T16:41:29.912Z,0.77
2023-04-02T16:44:11.748Z,1.17
2023-04-02T16:46:57.460Z,1.15
2023-04-02T16:49:27.673Z,1.08
2023-04-02T16:52:01.252Z,1.20
2023-04-02T16:54:53.677Z,0.95
2023-04-02T16:57:28.171Z,1.08
2023-04-02T17:00:13.946Z,1.25
2023-04-02T17:03:05.715Z,1.50
2023-04-02T17:05:43.202Z,1.60
2023-04-02T17:08:24.200Z,1.67
2023-04-02T17:11:02.877Z,1.20
2023-04-02T17:13:39.366Z,1.35
2023-04-02T17:16:12.863Z,1.02
2023-04-02T17:18:46.580Z,1.27
2023-04-02T17:21:18.966Z,1.25
2023-04-02T17:23:55.999Z,1.02
2023-04-02T17:26:28.134Z,2.10
2023-04-02T17:29:01.138Z,1.60
2023-04-02T17:31:37.341Z,1.95
2023-04-02T17:34:14.303Z,1.70
2023-04-02T17:36:57.984Z,2.20
2023-04-02T17:39:45.052Z,2.13
2023-04-02T17:42:43.732Z,2.00
2023-04-02T17:45:28.658Z,1.40
2023-04-02T17:48:24.890Z,0.90
2023-04-02T17:51:09.635Z,1.08
2023-04-02T17:53:41.756Z,0.82
2023-04-02T17:56:30.885Z,1.10
2023-04-02T17:59:21.421Z,1.05
2023-04-02T18:02:19.311Z,1.40
2023-04-02T18:05:12.620Z,1.20
2023-04-02T18:07:51.293Z,1.40
2023-04-02T18:10:42.603Z,0.98
2023-04-02T18:13:28.256Z,1.20
2023-04-02T18:16:13.488Z,1.60
2023-04-02T18:18:54.202Z,1.30
2023-04-02T18:21:33.461Z,1.67
2023-04-02T18:24:06.204Z,1.40
2023-04-02T18:26:55.388Z,1.67
2023-04-02T18:29:40.331Z,1.48
2023-04-02T18:32:41.286Z,1.13
2023-04-02T18:35:30.616Z,1.30
2023-04-02T18:38:30.159Z,1.30
2023-04-02T18:41:21.549Z,1.00
2023-04-02T18:44:07.723Z,1.90
2023-04-02T18:47:19.510Z,1.10
2023-04-02T18:50:12.859Z,1.30
2023-04-02T18:52:41.146Z,1.40
2023-04-02T18:55:15.926Z,1.20
2023-04-02T18:57:45.233Z,1.33
2023-04-02T19:00:29.004Z,1.35
2023-04-02T19:03:14.513Z,1.63
2023-04-02T19:06:22.731Z,1.30
2023-04-02T19:09:13.352Z,1.20
2023-04-02T19:11:40.357Z,1.25
2023-04-02T19:14:18.398Z,1.20
2023-04-02T19:16:57.780Z,1.08
2023-04-02T19:19:38.192Z,1.20
2023-04-02T19:22:29.565Z,1.60
2023-04-02T19:25:18.698Z,1.30
2023-04-02T19:28:02.715Z,1.40
2023-04-02T19:30:29.454Z,1.30
2023-04-02T19:33:19.832Z,1.00
2023-04-02T19:35:50.528Z,1.10
2023-04-02T19:38:55.050Z,1.30
2023-04-02T19:41:40.636Z,1.50
2023-04-02T19:44:13.475Z,1.40
2023-04-02T19:46:40.971Z,1.20
2023-04-02T19:49:17.025Z,1.35
2023-04-02T19:51:44.305Z,1.20
2023-04-02T19:54:11.482Z,1.40
2023-04-02T19:56:38.348Z,1.40
2023-04-02T19:59:16.971Z,1.23
2023-04-02T20:01:44.940Z,1.25
2023-04-02T20:04:12.188Z,1.30
2023-04-02T20:06:39.434Z,1.58
2023-04-02T20:09:09.047Z,1.35
2023-04-02T20:11:37.406Z,1.60
2023-04-02T20:14:04.847Z,1.75
2023-04-02T20:16:33.030Z,1.75
2023-04-02T20:18:59.930Z,1.52
2023-04-02T20:21:27.688Z,1.23
2023-04-02T20:23:55.500Z,1.50
2023-04-02T20:26:23.303Z,1.60
2023-04-02T20:28:50.219Z,1.48
2023-04-02T20:31:18.921Z,1.50
2023-04-02T20:33:46.707Z,1.30
2023-04-02T20:36:16.327Z,1.50
2023-04-02T20:38:43.514Z,1.83
2023-04-02T20:41:11.153Z,1.40
2023-04-02T20:43:40.728Z,1.58
2023-04-02T20:46:10.079Z,1.35
2023-04-02T20:48:38.088Z,1.23
2023-04-02T20:51:07.557Z,1.42
2023-04-02T20:53:36.416Z,1.45
2023-04-02T20:56:10.922Z,1.17
2023-04-02T20:58:39.627Z,1.52
2023-04-02T21:01:24.359Z,1.65
2023-04-02T21:03:56.777Z,1.20
2023-04-02T21:06:26.134Z,1.80
2023-04-02T21:08:53.864Z,1.50
2023-04-02T21:11:22.118Z,1.77
2023-04-02T21:13:50.044Z,1.77
2023-04-02T21:16:21.178Z,1.38
2023-04-02T21:18:53.016Z,1.40
2023-04-02T21:21:21.142Z,1.60
2023-04-02T21:23:48.354Z,1.40
2023-04-02T21:26:17.331Z,1.70
2023-04-02T21:28:45.621Z,1.67
2023-04-02T21:31:27.073Z,2.33
2023-04-02T21:33:56.636Z,1.65
2023-04-02T21:36:24.878Z,1.70
2023-04-02T21:39:00.697Z,1.67
2023-04-02T21:41:32.883Z,1.75
2023-04-02T21:44:01.333Z,1.60
2023-04-02T21:46:30.594Z,1.90
2023-04-02T21:48:59.386Z,1.40
2023-04-02T21:51:29.038Z,1.58
2023-04-02T21:53:56.183Z,1.50
2023-04-02T21:56:28.702Z,1.50
2023-04-02T21:58:56.907Z,1.90
2023-04-02T22:01:28.016Z,1.90
2023-04-02T22:03:56.824Z,1.42
2023-04-02T22:06:25.823Z,1.77
2023-04-02T22:08:56.288Z,1.58
2023-04-02T22:11:29.333Z,1.60
2023-04-02T22:13:56.530Z,2.13
2023-04-02T22:16:26.532Z,1.70
2023-04-02T22:18:55.662Z,1.80
2023-04-02T22:21:23.069Z,1.40
2023-04-02T22:23:50.613Z,1.65
2023-04-02T22:26:19.199Z,2.05
2023-04-02T22:28:46.624Z,1.73
2023-04-02T22:31:22.629Z,1.88
2023-04-02T22:33:50.588Z,1.80
2023-04-02T22:36:18.633Z,1.88
2023-04-02T22:38:46.259Z,1.52
2023-04-02T22:41:27.609Z,1.70
2023-04-02T22:43:58.484Z,1.70
2023-04-02T22:46:26.854Z,1.75
2023-04-02T22:48:54.924Z,1.80
2023-04-02T22:51:25.281Z,1.80
2023-04-02T22:53:55.903Z,1.70
2023-04-02T22:56:27.131Z,1.70
2023-04-02T22:58:54.582Z,1.60
2023-04-02T23:01:25.728Z,1.90
2023-04-02T23:03:56.422Z,2.50
2023-04-02T23:06:24.392Z,1.80
2023-04-02T23:08:51.800Z,1.90
2023-04-02T23:11:27.783Z,2.03
2023-04-02T23:13:56.797Z,1.92
2023-04-02T23:16:26.959Z,1.80
2023-04-02T23:18:54.677Z,2.13
2023-04-02T23:21:22.043Z,1.70
2023-04-02T23:23:49.308Z,2.00
2023-04-02T23:26:22.969Z,1.90
2023-04-02T23:28:51.510Z,1.98
2023-04-02T23:31:21.852Z,2.03
2023-04-02T23:33:49.702Z,1.80
2023-04-02T23:36:20.665Z,1.90
2023-04-02T23:38:47.991Z,2.00
2023-04-02T23:41:18.445Z,2.05
2023-04-02T23:43:46.406Z,1.80
2023-04-02T23:46:14.835Z,2.00
2023-04-02T23:48:43.333Z,1.92
2023-04-02T23:51:11.309Z,2.03
2023-04-02T23:53:39.806Z,1.95
2023-04-02T23:56:06.938Z,2.00
2023-04-02T23:58:33.916Z,1.70
